createdAt,value
2017-10-11T00:00:52.956Z,0
2017-10-11T00:01:55.339Z,0
2017-10-11T00:02:57.709Z,0
2017-10-11T00:04:00.461Z,0
2017-10-11T00:05:02.836Z,0
2017-10-11T00:06:05.216Z,0
2017-10-11T00:07:07.599Z,0
2017-10-11T00:08:09.981Z,0
2017-10-11T00:09:12.355Z,0
2017-10-11T00:10:14.745Z,0
2017-10-11T00:11:17.111Z,0
2017-10-11T00:12:19.492Z,0
2017-10-11T00:13:21.879Z,0
2017-10-11T00:14:24.249Z,0
2017-10-11T00:15:26.634Z,0
2017-10-11T00:16:29.391Z,0
2017-10-11T00:17:31.762Z,0
2017-10-11T00:18:34.137Z,0
2017-10-11T00:19:36.520Z,0
2017-10-11T00:20:39.104Z,0
2017-10-11T00:21:41.843Z,0
2017-10-11T00:22:44.219Z,0
2017-10-11T00:23:46.796Z,0
2017-10-11T00:24:49.177Z,0
2017-10-11T00:25:51.563Z,0
2017-10-11T00:26:53.948Z,0
2017-10-11T00:27:56.332Z,0
2017-10-11T00:28:58.715Z,0
2017-10-11T00:30:01.100Z,0
2017-10-11T00:31:03.470Z,0
2017-10-11T00:32:05.860Z,0
2017-10-11T00:33:08.232Z,0
2017-10-11T00:34:10.604Z,0
2017-10-11T00:35:12.984Z,0
2017-10-11T00:36:15.354Z,0
2017-10-11T00:37:17.729Z,0
2017-10-11T00:38:20.115Z,0
2017-10-11T00:39:22.490Z,0
2017-10-11T00:40:24.872Z,0
2017-10-11T00:41:27.256Z,0
2017-10-11T00:42:29.636Z,0
2017-10-11T00:43:32.051Z,0
2017-10-11T00:44:34.398Z,0
2017-10-11T00:45:36.775Z,0
2017-10-11T00:46:39.148Z,0
2017-10-11T00:47:41.535Z,0
2017-10-11T00:48:44.252Z,0
2017-10-11T00:49:46.635Z,0
2017-10-11T00:50:49.009Z,0
2017-10-11T00:51:51.385Z,0
2017-10-11T00:52:53.756Z,0
2017-10-11T00:53:56.142Z,0
2017-10-11T00:54:58.511Z,0
2017-10-11T00:56:00.896Z,0
2017-10-11T00:57:03.285Z,0
2017-10-11T00:58:05.659Z,0
2017-10-11T00:59:08.045Z,0
2017-10-11T01:00:10.424Z,0
2017-10-11T01:01:12.809Z,0
2017-10-11T01:02:15.176Z,0
2017-10-11T01:03:17.560Z,0
2017-10-11T01:04:19.935Z,0
2017-10-11T01:05:22.662Z,0
2017-10-11T01:06:25.048Z,0
2017-10-11T01:07:27.419Z,0
2017-10-11T01:08:29.797Z,0
2017-10-11T01:09:32.185Z,0
2017-10-11T01:10:34.566Z,0
2017-10-11T01:11:36.947Z,0
2017-10-11T01:12:39.322Z,0
2017-10-11T01:13:41.698Z,0
2017-10-11T01:14:44.076Z,0
2017-10-11T01:15:46.456Z,0
2017-10-11T01:16:48.828Z,0
2017-10-11T01:17:51.223Z,0
2017-10-11T01:18:53.582Z,0
2017-10-11T01:19:55.961Z,0
2017-10-11T01:20:58.355Z,0
2017-10-11T01:22:00.734Z,0
2017-10-11T01:23:03.110Z,0
2017-10-11T01:24:05.846Z,0
2017-10-11T01:25:08.218Z,0
2017-10-11T01:26:10.595Z,0
2017-10-11T01:27:12.969Z,0
2017-10-11T01:28:16.044Z,0
2017-10-11T01:29:18.437Z,0
2017-10-11T01:30:20.801Z,0
2017-10-11T01:31:23.184Z,0
2017-10-11T01:32:25.561Z,0
2017-10-11T01:33:27.949Z,0
2017-10-11T01:34:30.330Z,0
2017-10-11T01:35:33.059Z,0
2017-10-11T01:36:35.427Z,0
2017-10-11T01:37:37.819Z,0
2017-10-11T01:38:40.198Z,0
2017-10-11T01:39:42.569Z,0
2017-10-11T01:40:44.954Z,0
2017-10-11T01:41:47.334Z,0
2017-10-11T01:42:49.717Z,0
2017-10-11T01:43:52.101Z,0
2017-10-11T01:44:54.476Z,0
2017-10-11T01:45:56.856Z,0
2017-10-11T01:46:59.248Z,0
2017-10-11T01:48:01.618Z,0
2017-10-11T01:49:03.994Z,0
2017-10-11T01:50:06.376Z,0
2017-10-11T01:51:08.742Z,0
2017-10-11T01:52:11.135Z,0
2017-10-11T01:53:13.512Z,0
2017-10-11T01:54:15.882Z,0
2017-10-11T01:55:18.262Z,0
2017-10-11T01:56:20.641Z,0
2017-10-11T01:57:23.017Z,0
2017-10-11T01:58:25.401Z,0
2017-10-11T01:59:28.120Z,0
2017-10-11T02:00:30.507Z,0
2017-10-11T02:01:32.875Z,0
2017-10-11T02:02:35.623Z,0
2017-10-11T02:03:38.008Z,0
2017-10-11T02:04:40.384Z,0
2017-10-11T02:05:43.118Z,0
2017-10-11T02:06:45.492Z,0
2017-10-11T02:07:47.872Z,0
2017-10-11T02:08:50.251Z,0
2017-10-11T02:09:52.630Z,0
2017-10-11T02:10:55.009Z,0
2017-10-11T02:11:57.397Z,0
2017-10-11T02:13:00.128Z,0
2017-10-11T02:14:02.507Z,0
2017-10-11T02:15:04.889Z,0
2017-10-11T02:16:07.255Z,0
2017-10-11T02:17:09.647Z,0
2017-10-11T02:18:12.022Z,0
2017-10-11T02:19:14.399Z,0
2017-10-11T02:20:16.780Z,0
2017-10-11T02:21:19.156Z,0
2017-10-11T02:22:21.539Z,0
2017-10-11T02:23:23.921Z,0
2017-10-11T02:24:26.299Z,0
2017-10-11T02:25:28.675Z,0
2017-10-11T02:26:31.050Z,0
2017-10-11T02:27:33.446Z,0
2017-10-11T02:28:35.824Z,0
2017-10-11T02:29:38.199Z,0
2017-10-11T02:30:40.574Z,0
2017-10-11T02:31:42.955Z,0
2017-10-11T02:32:45.342Z,0
2017-10-11T02:33:47.716Z,0
2017-10-11T02:34:50.083Z,0
2017-10-11T02:35:52.462Z,0
2017-10-11T02:36:54.852Z,0
2017-10-11T02:37:57.235Z,0
2017-10-11T02:38:59.610Z,0
2017-10-11T02:40:01.993Z,0
2017-10-11T02:41:04.706Z,0
2017-10-11T02:42:07.097Z,0
2017-10-11T02:43:09.478Z,0
2017-10-11T02:44:12.195Z,0
2017-10-11T02:45:14.585Z,0
2017-10-11T02:46:16.970Z,0
2017-10-11T02:47:32.103Z,0
2017-10-11T02:48:34.525Z,0
2017-10-11T02:49:37.018Z,0
2017-10-11T02:50:39.450Z,0
2017-10-11T02:51:41.868Z,0
2017-10-11T02:52:44.306Z,0
2017-10-11T02:53:46.743Z,0
2017-10-11T02:54:49.176Z,0
2017-10-11T02:55:51.615Z,0
2017-10-11T02:56:54.037Z,0
2017-10-11T02:57:56.468Z,0
2017-10-11T02:58:58.897Z,0
2017-10-11T03:00:01.328Z,0
2017-10-11T03:01:03.772Z,0
2017-10-11T03:02:06.192Z,0
2017-10-11T03:03:08.634Z,0
2017-10-11T03:04:11.062Z,0
2017-10-11T03:05:13.498Z,0
2017-10-11T03:06:15.935Z,0
2017-10-11T03:07:18.367Z,0
2017-10-11T03:08:20.793Z,0
2017-10-11T03:09:23.237Z,0
2017-10-11T03:10:26.032Z,0
2017-10-11T03:11:28.466Z,0
2017-10-11T03:12:31.622Z,0
2017-10-11T03:13:34.047Z,0
2017-10-11T03:14:36.473Z,0
2017-10-11T03:15:39.270Z,0
2017-10-11T03:16:41.690Z,0
2017-10-11T03:17:44.128Z,0
2017-10-11T03:18:46.552Z,0
2017-10-11T03:19:48.987Z,0
2017-10-11T03:20:51.420Z,0
2017-10-11T03:21:53.860Z,0
2017-10-11T03:22:56.285Z,0
2017-10-11T03:23:59.083Z,0
2017-10-11T03:25:01.512Z,0
2017-10-11T03:26:04.292Z,0
2017-10-11T03:27:06.731Z,0
2017-10-11T03:28:09.164Z,0
2017-10-11T03:29:11.596Z,0
2017-10-11T03:30:14.036Z,0
2017-10-11T03:31:16.471Z,0
2017-10-11T03:32:18.914Z,0
2017-10-11T03:33:21.345Z,0
2017-10-11T03:34:23.760Z,0
2017-10-11T03:35:26.594Z,0
2017-10-11T03:36:29.031Z,0
2017-10-11T03:37:31.815Z,0
2017-10-11T03:38:34.247Z,0
2017-10-11T03:39:36.690Z,0
2017-10-11T03:40:39.114Z,0
2017-10-11T03:41:41.557Z,0
2017-10-11T03:42:43.983Z,0
2017-10-11T03:43:46.416Z,0
2017-10-11T03:44:49.212Z,0
2017-10-11T03:45:51.991Z,0
2017-10-11T03:46:54.433Z,0
2017-10-11T03:47:56.868Z,0
2017-10-11T03:48:59.294Z,0
2017-10-11T03:50:01.732Z,0
2017-10-11T03:51:04.177Z,0
2017-10-11T03:52:06.967Z,0
2017-10-11T03:53:09.402Z,0
2017-10-11T03:54:11.848Z,0
2017-10-11T03:55:14.286Z,0
2017-10-11T03:56:16.711Z,0
2017-10-11T03:57:19.146Z,0
2017-10-11T03:58:21.590Z,0
2017-10-11T03:59:24.386Z,0
2017-10-11T04:00:26.812Z,0
2017-10-11T04:01:29.248Z,0
2017-10-11T04:02:31.682Z,0
2017-10-11T04:03:34.110Z,0
2017-10-11T04:04:36.546Z,0
2017-10-11T04:05:38.971Z,0
2017-10-11T04:06:41.758Z,0
2017-10-11T04:07:44.208Z,0
2017-10-11T04:08:46.633Z,0
2017-10-11T04:09:49.063Z,0
2017-10-11T04:10:51.502Z,0
2017-10-11T04:11:53.943Z,0
2017-10-11T04:12:56.413Z,0
2017-10-11T04:13:58.849Z,0
2017-10-11T04:15:01.265Z,0
2017-10-11T04:16:03.709Z,0
2017-10-11T04:17:06.142Z,0
2017-10-11T04:18:08.569Z,0
2017-10-11T04:19:11.008Z,0
2017-10-11T04:20:13.436Z,0
2017-10-11T04:21:15.863Z,0
2017-10-11T04:22:18.315Z,0
2017-10-11T04:23:21.104Z,0
2017-10-11T04:24:23.527Z,0
2017-10-11T04:25:26.321Z,0
2017-10-11T04:26:29.135Z,0
2017-10-11T04:27:31.567Z,0
2017-10-11T04:28:34.002Z,0
2017-10-11T04:29:36.440Z,0
2017-10-11T04:30:38.868Z,0
2017-10-11T04:31:41.667Z,0
2017-10-11T04:32:44.101Z,0
2017-10-11T04:33:46.517Z,0
2017-10-11T04:34:48.960Z,0
2017-10-11T04:35:51.392Z,0
2017-10-11T04:36:53.827Z,0
2017-10-11T04:37:56.267Z,0
2017-10-11T04:38:59.040Z,0
2017-10-11T04:40:01.471Z,0
2017-10-11T04:41:03.917Z,0
2017-10-11T04:42:06.352Z,0
2017-10-11T04:43:08.800Z,0
2017-10-11T04:44:11.580Z,0
2017-10-11T04:45:14.009Z,0
2017-10-11T04:46:16.826Z,0
2017-10-11T04:47:19.261Z,0
2017-10-11T04:48:21.689Z,0
2017-10-11T04:49:24.124Z,0
2017-10-11T04:50:26.552Z,0
2017-10-11T04:51:28.986Z,0
2017-10-11T04:52:31.421Z,0
2017-10-11T04:53:33.870Z,0
2017-10-11T04:54:36.319Z,0
2017-10-11T04:55:38.753Z,0
2017-10-11T04:56:41.182Z,0
2017-10-11T04:57:43.629Z,0
2017-10-11T04:58:46.063Z,0
2017-10-11T04:59:48.492Z,0
2017-10-11T05:00:50.926Z,0
2017-10-11T05:01:53.365Z,0
2017-10-11T05:02:55.792Z,0
2017-10-11T05:03:58.230Z,0
2017-10-11T05:05:01.003Z,0
2017-10-11T05:06:03.437Z,0
2017-10-11T05:07:05.872Z,0
2017-10-11T05:08:08.308Z,0
2017-10-11T05:09:10.736Z,4
2017-10-11T05:10:13.173Z,4
2017-10-11T05:11:15.602Z,4
2017-10-11T05:12:18.052Z,4
2017-10-11T05:13:20.484Z,4
2017-10-11T05:14:22.911Z,12
2017-10-11T05:15:25.344Z,12
2017-10-11T05:16:27.775Z,16
2017-10-11T05:17:30.209Z,16
2017-10-11T05:18:32.639Z,16
2017-10-11T05:19:35.061Z,16
2017-10-11T05:20:37.863Z,20
2017-10-11T05:21:40.292Z,24
2017-10-11T05:22:42.725Z,28
2017-10-11T05:23:45.163Z,32
2017-10-11T05:24:47.592Z,44
2017-10-11T05:25:50.030Z,48
2017-10-11T05:26:52.463Z,48
2017-10-11T05:27:54.904Z,56
2017-10-11T05:28:57.321Z,64
2017-10-11T05:30:00.131Z,64
2017-10-11T05:31:02.920Z,72
2017-10-11T05:32:05.356Z,64
2017-10-11T05:33:07.787Z,56
2017-10-11T05:34:10.230Z,52
2017-10-11T05:35:13.015Z,60
2017-10-11T05:36:15.458Z,72
2017-10-11T05:37:17.886Z,80
2017-10-11T05:38:20.314Z,100
2017-10-11T05:39:22.753Z,88
2017-10-11T05:40:25.190Z,80
2017-10-11T05:41:27.981Z,96
2017-10-11T05:42:31.133Z,116
2017-10-11T05:43:33.559Z,136
2017-10-11T05:44:36.362Z,164
2017-10-11T05:45:38.818Z,176
2017-10-11T05:46:41.217Z,232
2017-10-11T05:47:44.011Z,256
2017-10-11T05:48:46.445Z,272
2017-10-11T05:49:49.232Z,312
2017-10-11T05:50:51.670Z,364
2017-10-11T05:51:54.458Z,420
2017-10-11T05:52:56.881Z,436
2017-10-11T05:53:59.310Z,436
2017-10-11T05:55:02.111Z,472
2017-10-11T05:56:04.541Z,536
2017-10-11T05:57:06.975Z,624
2017-10-11T05:58:09.416Z,684
2017-10-11T05:59:11.841Z,712
2017-10-11T06:00:14.639Z,748
2017-10-11T06:01:17.082Z,780
2017-10-11T06:02:19.524Z,804
2017-10-11T06:03:22.318Z,840
2017-10-11T06:04:24.760Z,860
2017-10-11T06:05:27.186Z,896
2017-10-11T06:06:29.629Z,932
2017-10-11T06:07:32.413Z,1028
2017-10-11T06:08:34.847Z,1124
2017-10-11T06:09:37.286Z,1236
2017-10-11T06:10:39.724Z,1352
2017-10-11T06:11:42.148Z,1488
2017-10-11T06:12:44.584Z,1812
2017-10-11T06:13:47.020Z,2040
2017-10-11T06:14:49.451Z,2024
2017-10-11T06:15:51.887Z,1848
2017-10-11T06:16:54.682Z,2000
2017-10-11T06:17:57.116Z,2256
2017-10-11T06:18:59.551Z,2208
2017-10-11T06:20:01.994Z,2112
2017-10-11T06:21:04.406Z,2268
2017-10-11T06:22:06.848Z,2440
2017-10-11T06:23:09.275Z,2500
2017-10-11T06:24:11.711Z,2420
2017-10-11T06:25:14.145Z,2408
2017-10-11T06:26:16.599Z,2368
2017-10-11T06:27:19.029Z,2340
2017-10-11T06:28:21.803Z,2424
2017-10-11T06:29:24.955Z,2324
2017-10-11T06:30:27.385Z,2244
2017-10-11T06:31:29.821Z,2064
2017-10-11T06:32:32.268Z,1936
2017-10-11T06:33:35.052Z,2020
2017-10-11T06:34:37.477Z,1812
2017-10-11T06:35:39.924Z,2064
2017-10-11T06:36:42.346Z,2736
2017-10-11T06:37:44.792Z,2860
2017-10-11T06:38:47.229Z,3072
2017-10-11T06:39:49.647Z,3044
2017-10-11T06:40:52.081Z,3048
2017-10-11T06:41:54.514Z,2748
2017-10-11T06:42:56.949Z,2372
2017-10-11T06:43:59.384Z,2296
2017-10-11T06:45:01.807Z,2396
2017-10-11T06:46:04.239Z,2872
2017-10-11T06:47:06.693Z,3312
2017-10-11T06:48:09.116Z,4008
2017-10-11T06:49:11.556Z,4156
2017-10-11T06:50:13.974Z,4088
2017-10-11T06:51:16.416Z,3976
2017-10-11T06:52:18.831Z,3924
2017-10-11T06:53:21.267Z,3588
2017-10-11T06:54:23.705Z,3060
2017-10-11T06:55:26.127Z,2984
2017-10-11T06:56:28.567Z,2552
2017-10-11T06:57:31.000Z,2256
2017-10-11T06:58:33.790Z,2312
2017-10-11T06:59:36.234Z,2400
2017-10-11T07:00:38.667Z,2228
2017-10-11T07:01:41.093Z,2240
2017-10-11T07:02:43.530Z,2336
2017-10-11T07:03:45.988Z,2708
2017-10-11T07:04:48.765Z,2560
2017-10-11T07:05:51.193Z,2352
2017-10-11T07:06:53.621Z,2376
2017-10-11T07:07:56.056Z,1784
2017-10-11T07:08:58.491Z,1400
2017-10-11T07:10:00.927Z,1840
2017-10-11T07:11:03.354Z,2348
2017-10-11T07:12:06.152Z,2772
2017-10-11T07:13:08.590Z,2824
2017-10-11T07:14:11.025Z,3404
2017-10-11T07:15:13.452Z,3584
2017-10-11T07:16:15.894Z,3460
2017-10-11T07:17:18.324Z,2040
2017-10-11T07:18:20.769Z,2940
2017-10-11T07:19:23.197Z,4196
2017-10-11T07:20:25.628Z,4648
2017-10-11T07:21:28.061Z,4880
2017-10-11T07:22:30.489Z,5164
2017-10-11T07:23:32.930Z,4656
2017-10-11T07:24:35.366Z,3528
2017-10-11T07:25:37.792Z,2156
2017-10-11T07:26:40.230Z,2260
2017-10-11T07:27:43.041Z,3320
2017-10-11T07:28:45.833Z,4656
2017-10-11T07:29:48.265Z,5880
2017-10-11T07:30:51.071Z,6012
2017-10-11T07:31:53.853Z,6192
2017-10-11T07:32:56.295Z,6396
2017-10-11T07:33:58.737Z,6172
2017-10-11T07:35:01.155Z,7016
2017-10-11T07:36:03.593Z,7172
2017-10-11T07:37:06.009Z,5796
2017-10-11T07:38:08.456Z,5204
2017-10-11T07:39:10.886Z,4800
2017-10-11T07:40:13.319Z,5684
2017-10-11T07:41:15.757Z,6148
2017-10-11T07:42:18.194Z,5892
2017-10-11T07:43:20.629Z,6292
2017-10-11T07:44:23.077Z,5160
2017-10-11T07:45:25.506Z,4900
2017-10-11T07:46:27.935Z,4848
2017-10-11T07:47:30.736Z,4348
2017-10-11T07:48:33.165Z,3864
2017-10-11T07:49:35.592Z,5924
2017-10-11T07:50:38.393Z,7412
2017-10-11T07:51:40.821Z,7880
2017-10-11T07:52:43.616Z,7744
2017-10-11T07:53:46.053Z,6484
2017-10-11T07:54:48.486Z,6424
2017-10-11T07:55:51.288Z,6564
2017-10-11T07:56:53.716Z,8008
2017-10-11T07:57:56.158Z,8060
2017-10-11T07:58:58.584Z,11256
2017-10-11T08:00:01.011Z,8888
2017-10-11T08:01:03.448Z,7276
2017-10-11T08:02:06.223Z,8364
2017-10-11T08:03:08.664Z,7316
2017-10-11T08:04:11.452Z,7392
2017-10-11T08:05:14.245Z,11040
2017-10-11T08:06:16.671Z,7824
2017-10-11T08:07:19.110Z,6164
2017-10-11T08:08:21.535Z,5868
2017-10-11T08:09:23.967Z,5608
2017-10-11T08:10:26.421Z,7012
2017-10-11T08:11:28.851Z,10148
2017-10-11T08:12:31.282Z,10576
2017-10-11T08:13:33.708Z,6496
2017-10-11T08:14:36.147Z,7264
2017-10-11T08:15:38.581Z,9464
2017-10-11T08:16:41.025Z,15716
2017-10-11T08:17:43.445Z,14980
2017-10-11T08:18:45.879Z,8564
2017-10-11T08:19:48.326Z,7664
2017-10-11T08:20:50.761Z,6164
2017-10-11T08:21:53.193Z,5952
2017-10-11T08:22:55.638Z,8220
2017-10-11T08:23:58.072Z,6112
2017-10-11T08:25:00.852Z,5988
2017-10-11T08:26:03.290Z,6104
2017-10-11T08:27:05.721Z,6772
2017-10-11T08:28:08.162Z,8024
2017-10-11T08:29:10.590Z,6284
2017-10-11T08:30:13.024Z,4672
2017-10-11T08:31:15.451Z,3712
2017-10-11T08:32:17.901Z,3448
2017-10-11T08:33:20.337Z,3180
2017-10-11T08:34:23.123Z,4188
2017-10-11T08:35:25.570Z,4032
2017-10-11T08:36:28.005Z,3812
2017-10-11T08:37:30.452Z,6660
2017-10-11T08:38:32.879Z,7368
2017-10-11T08:39:35.320Z,7332
2017-10-11T08:40:37.743Z,6216
2017-10-11T08:41:40.180Z,6904
2017-10-11T08:42:42.608Z,6608
2017-10-11T08:43:45.051Z,6500
2017-10-11T08:44:47.484Z,6500
2017-10-11T08:45:49.914Z,6692
2017-10-11T08:46:52.369Z,9276
2017-10-11T08:47:54.795Z,8252
2017-10-11T08:48:57.234Z,7364
2017-10-11T08:49:59.665Z,7372
2017-10-11T08:51:02.109Z,6540
2017-10-11T08:52:04.538Z,7548
2017-10-11T08:53:06.973Z,6680
2017-10-11T08:54:09.410Z,6108
2017-10-11T08:55:12.209Z,7436
2017-10-11T08:56:14.995Z,7440
2017-10-11T08:57:17.445Z,7656
2017-10-11T08:58:19.864Z,8340
2017-10-11T08:59:22.305Z,7240
2017-10-11T09:00:24.738Z,6908
2017-10-11T09:01:27.525Z,7404
2017-10-11T09:02:30.319Z,7376
2017-10-11T09:03:32.749Z,7540
2017-10-11T09:04:35.186Z,7512
2017-10-11T09:05:37.982Z,6784
2017-10-11T09:06:40.424Z,6856
2017-10-11T09:07:42.845Z,8188
2017-10-11T09:08:45.279Z,9548
2017-10-11T09:09:48.065Z,10848
2017-10-11T09:10:50.601Z,11448
2017-10-11T09:11:53.039Z,11716
2017-10-11T09:12:55.474Z,11192
2017-10-11T09:13:58.260Z,11796
2017-10-11T09:15:01.058Z,10596
2017-10-11T09:16:03.489Z,10688
2017-10-11T09:17:05.927Z,9184
2017-10-11T09:18:08.361Z,6008
2017-10-11T09:19:10.794Z,4584
2017-10-11T09:20:13.225Z,3816
2017-10-11T09:21:15.661Z,4304
2017-10-11T09:22:18.449Z,3832
2017-10-11T09:23:20.892Z,3448
2017-10-11T09:24:23.311Z,3384
2017-10-11T09:25:25.749Z,4320
2017-10-11T09:26:28.189Z,3664
2017-10-11T09:27:30.622Z,4336
2017-10-11T09:28:33.056Z,4940
2017-10-11T09:29:35.496Z,5268
2017-10-11T09:30:37.925Z,4624
2017-10-11T09:31:40.374Z,4200
2017-10-11T09:32:42.796Z,2572
2017-10-11T09:33:45.597Z,3080
2017-10-11T09:34:48.012Z,3520
2017-10-11T09:35:50.448Z,4904
2017-10-11T09:36:52.891Z,5052
2017-10-11T09:37:55.334Z,4696
2017-10-11T09:38:57.754Z,4856
2017-10-11T09:40:00.195Z,3792
2017-10-11T09:41:02.631Z,3204
2017-10-11T09:42:05.070Z,4004
2017-10-11T09:43:07.535Z,3772
2017-10-11T09:44:09.945Z,3628
2017-10-11T09:45:12.376Z,4044
2017-10-11T09:46:15.175Z,6168
2017-10-11T09:47:17.603Z,6608
2017-10-11T09:48:20.047Z,6936
2017-10-11T09:49:22.476Z,6684
2017-10-11T09:50:24.916Z,7020
2017-10-11T09:51:27.353Z,6656
2017-10-11T09:52:29.789Z,7052
2017-10-11T09:53:32.230Z,6436
2017-10-11T09:54:35.040Z,5480
2017-10-11T09:55:37.471Z,7056
2017-10-11T09:56:39.911Z,6476
2017-10-11T09:57:42.341Z,6496
2017-10-11T09:58:44.770Z,8668
2017-10-11T09:59:47.212Z,12112
2017-10-11T10:00:49.642Z,14716
2017-10-11T10:01:52.447Z,18460
2017-10-11T10:02:54.882Z,26304
2017-10-11T10:03:57.316Z,32256
2017-10-11T10:04:59.768Z,27936
2017-10-11T10:06:02.197Z,38624
2017-10-11T10:07:04.633Z,25440
2017-10-11T10:08:07.074Z,55072
2017-10-11T10:09:09.500Z,28960
2017-10-11T10:10:12.288Z,37120
2017-10-11T10:11:14.735Z,46848
2017-10-11T10:12:17.171Z,31712
2017-10-11T10:13:19.601Z,41376
2017-10-11T10:14:22.047Z,21152
2017-10-11T10:15:24.479Z,17764
2017-10-11T10:16:26.908Z,12596
2017-10-11T10:17:29.342Z,15528
2017-10-11T10:18:32.138Z,13008
2017-10-11T10:19:34.572Z,11368
2017-10-11T10:20:37.008Z,8484
2017-10-11T10:21:39.439Z,7328
2017-10-11T10:22:41.875Z,6228
2017-10-11T10:23:44.658Z,6136
2017-10-11T10:24:47.095Z,6544
2017-10-11T10:25:49.529Z,5748
2017-10-11T10:26:51.965Z,6012
2017-10-11T10:27:54.400Z,5020
2017-10-11T10:28:56.829Z,6612
2017-10-11T10:29:59.257Z,9800
2017-10-11T10:31:01.710Z,10420
2017-10-11T10:32:04.499Z,17256
2017-10-11T10:33:06.931Z,19040
2017-10-11T10:34:09.373Z,18368
2017-10-11T10:35:11.810Z,16844
2017-10-11T10:36:14.247Z,16044
2017-10-11T10:37:16.685Z,15184
2017-10-11T10:38:19.104Z,13648
2017-10-11T10:39:21.543Z,13312
2017-10-11T10:40:23.978Z,11716
2017-10-11T10:41:26.405Z,9468
2017-10-11T10:42:28.845Z,9920
2017-10-11T10:43:31.277Z,9272
2017-10-11T10:44:33.706Z,9132
2017-10-11T10:45:36.156Z,9556
2017-10-11T10:46:38.590Z,9388
2017-10-11T10:47:41.017Z,9416
2017-10-11T10:48:43.464Z,11596
2017-10-11T10:49:45.905Z,12716
2017-10-11T10:50:48.328Z,12784
2017-10-11T10:51:50.763Z,12740
2017-10-11T10:52:53.563Z,9628
2017-10-11T10:53:55.999Z,6796
2017-10-11T10:54:58.428Z,6796
2017-10-11T10:56:00.858Z,6752
2017-10-11T10:57:03.287Z,6044
2017-10-11T10:58:05.725Z,7840
2017-10-11T10:59:08.160Z,8232
2017-10-11T11:00:10.596Z,6412
2017-10-11T11:01:13.394Z,6356
2017-10-11T11:02:16.185Z,5148
2017-10-11T11:03:18.617Z,5196
2017-10-11T11:04:21.051Z,5256
2017-10-11T11:05:23.866Z,6176
2017-10-11T11:06:26.298Z,6996
2017-10-11T11:07:28.729Z,6644
2017-10-11T11:08:31.168Z,6604
2017-10-11T11:09:34.308Z,5324
2017-10-11T11:10:36.743Z,5220
2017-10-11T11:11:39.889Z,4628
2017-10-11T11:12:42.321Z,4580
2017-10-11T11:13:44.773Z,4360
2017-10-11T11:14:47.558Z,4356
2017-10-11T11:15:49.988Z,4448
2017-10-11T11:16:52.429Z,4348
2017-10-11T11:17:55.241Z,4916
2017-10-11T11:18:57.679Z,3996
2017-10-11T11:20:00.121Z,4948
2017-10-11T11:21:02.544Z,3904
2017-10-11T11:22:04.990Z,4064
2017-10-11T11:23:07.779Z,3940
2017-10-11T11:24:10.211Z,3452
2017-10-11T11:25:12.653Z,3860
2017-10-11T11:26:15.081Z,3936
2017-10-11T11:27:17.518Z,4072
2017-10-11T11:28:19.960Z,3976
2017-10-11T11:29:22.392Z,3620
2017-10-11T11:30:24.831Z,4736
2017-10-11T11:31:27.260Z,3988
2017-10-11T11:32:29.694Z,4460
2017-10-11T11:33:32.137Z,3900
2017-10-11T11:34:34.935Z,4204
2017-10-11T11:35:37.363Z,4432
2017-10-11T11:36:39.806Z,4792
2017-10-11T11:37:42.593Z,4980
2017-10-11T11:38:45.022Z,4924
2017-10-11T11:39:47.455Z,4576
2017-10-11T11:40:49.896Z,4472
2017-10-11T11:41:52.328Z,4708
2017-10-11T11:42:54.774Z,4788
2017-10-11T11:43:57.572Z,4380
2017-10-11T11:45:00.006Z,4328
2017-10-11T11:46:02.448Z,4048
2017-10-11T11:47:04.885Z,4424
2017-10-11T11:48:07.316Z,4144
2017-10-11T11:49:09.752Z,4588
2017-10-11T11:50:12.189Z,4768
2017-10-11T11:51:14.645Z,3928
2017-10-11T11:52:17.064Z,3828
2017-10-11T11:53:19.876Z,3476
2017-10-11T11:54:22.309Z,3976
2017-10-11T11:55:24.736Z,3044
2017-10-11T11:56:27.183Z,3172
2017-10-11T11:57:29.611Z,3676
2017-10-11T11:58:32.048Z,3692
2017-10-11T11:59:34.485Z,3332
2017-10-11T12:00:36.914Z,2684
2017-10-11T12:01:39.360Z,3136
2017-10-11T12:02:41.802Z,2932
2017-10-11T12:03:44.240Z,2920
2017-10-11T12:04:46.677Z,2628
2017-10-11T12:05:49.849Z,2948
2017-10-11T12:06:52.277Z,2532
2017-10-11T12:07:54.713Z,2668
2017-10-11T12:08:57.146Z,2768
2017-10-11T12:09:59.577Z,2700
2017-10-11T12:11:02.024Z,2432
2017-10-11T12:12:04.455Z,2596
2017-10-11T12:13:07.251Z,2612
2017-10-11T12:14:09.689Z,2840
2017-10-11T12:15:12.122Z,2728
2017-10-11T12:16:14.559Z,2732
2017-10-11T12:17:16.986Z,2648
2017-10-11T12:18:19.423Z,2384
2017-10-11T12:19:21.871Z,2468
2017-10-11T12:20:24.290Z,2964
2017-10-11T12:21:26.732Z,2368
2017-10-11T12:22:29.171Z,3060
2017-10-11T12:23:31.608Z,2980
2017-10-11T12:24:34.044Z,3164
2017-10-11T12:25:36.486Z,3004
2017-10-11T12:26:38.908Z,3188
2017-10-11T12:27:41.352Z,3032
2017-10-11T12:28:44.148Z,3084
2017-10-11T12:29:46.570Z,3164
2017-10-11T12:30:49.010Z,3804
2017-10-11T12:31:51.440Z,3560
2017-10-11T12:32:53.881Z,3508
2017-10-11T12:33:56.320Z,3736
2017-10-11T12:34:59.464Z,3780
2017-10-11T12:36:01.885Z,4220
2017-10-11T12:37:04.321Z,4712
2017-10-11T12:38:06.758Z,4784
2017-10-11T12:39:09.567Z,3916
2017-10-11T12:40:12.006Z,3960
2017-10-11T12:41:14.429Z,4016
2017-10-11T12:42:16.884Z,3920
2017-10-11T12:43:19.324Z,4232
2017-10-11T12:44:21.760Z,4580
2017-10-11T12:45:24.197Z,5332
2017-10-11T12:46:26.990Z,5024
2017-10-11T12:47:29.426Z,4420
2017-10-11T12:48:31.878Z,4760
2017-10-11T12:49:34.308Z,4432
2017-10-11T12:50:36.752Z,4416
2017-10-11T12:51:39.175Z,4700
2017-10-11T12:52:41.605Z,4448
2017-10-11T12:53:44.059Z,3688
2017-10-11T12:54:46.477Z,4084
2017-10-11T12:55:48.910Z,3768
2017-10-11T12:56:51.340Z,3840
2017-10-11T12:57:53.781Z,3620
2017-10-11T12:58:56.564Z,3820
2017-10-11T12:59:59.006Z,3800
2017-10-11T13:01:01.433Z,3780
2017-10-11T13:02:03.871Z,4072
2017-10-11T13:03:06.302Z,3836
2017-10-11T13:04:08.739Z,3868
2017-10-11T13:05:11.533Z,3580
2017-10-11T13:06:13.960Z,3316
2017-10-11T13:07:16.398Z,2976
2017-10-11T13:08:18.846Z,3296
2017-10-11T13:09:21.272Z,3344
2017-10-11T13:10:23.708Z,3164
2017-10-11T13:11:26.137Z,3228
2017-10-11T13:12:28.574Z,3276
2017-10-11T13:13:31.018Z,3416
2017-10-11T13:14:33.802Z,3832
2017-10-11T13:15:36.574Z,4048
2017-10-11T13:16:39.398Z,4128
2017-10-11T13:17:41.829Z,3264
2017-10-11T13:18:44.272Z,3212
2017-10-11T13:19:46.709Z,3344
2017-10-11T13:20:49.144Z,3268
2017-10-11T13:21:51.577Z,3552
2017-10-11T13:22:54.010Z,3572
2017-10-11T13:23:56.444Z,3724
2017-10-11T13:24:58.887Z,4280
2017-10-11T13:26:01.687Z,3632
2017-10-11T13:27:04.122Z,4156
2017-10-11T13:28:06.556Z,5004
2017-10-11T13:29:09.001Z,4768
2017-10-11T13:30:11.430Z,3904
2017-10-11T13:31:13.871Z,4488
2017-10-11T13:32:16.308Z,4588
2017-10-11T13:33:18.738Z,4436
2017-10-11T13:34:21.192Z,4072
2017-10-11T13:35:23.628Z,3612
2017-10-11T13:36:26.059Z,3772
2017-10-11T13:37:28.495Z,3364
2017-10-11T13:38:30.932Z,3344
2017-10-11T13:39:33.364Z,3512
2017-10-11T13:40:35.804Z,3740
2017-10-11T13:41:38.232Z,3360
2017-10-11T13:42:40.665Z,2992
2017-10-11T13:43:43.114Z,2888
2017-10-11T13:44:45.542Z,3088
2017-10-11T13:45:47.981Z,2916
2017-10-11T13:46:50.776Z,2580
2017-10-11T13:47:53.934Z,2820
2017-10-11T13:48:56.366Z,2816
2017-10-11T13:49:58.806Z,2376
2017-10-11T13:51:01.239Z,2632
2017-10-11T13:52:03.666Z,2600
2017-10-11T13:53:06.105Z,2548
2017-10-11T13:54:08.543Z,2660
2017-10-11T13:55:23.707Z,2540
2017-10-11T13:56:26.083Z,2560
2017-10-11T13:57:28.464Z,2488
2017-10-11T13:58:30.861Z,2548
2017-10-11T13:59:33.241Z,2864
2017-10-11T14:00:35.612Z,2564
2017-10-11T14:01:38.000Z,2216
2017-10-11T14:02:40.372Z,2792
2017-10-11T14:03:42.759Z,2624
2017-10-11T14:04:45.146Z,2388
2017-10-11T14:05:47.515Z,2328
2017-10-11T14:06:49.897Z,2208
2017-10-11T14:07:52.291Z,2232
2017-10-11T14:08:54.676Z,1980
2017-10-11T14:09:57.402Z,2348
2017-10-11T14:11:00.136Z,2972
2017-10-11T14:12:02.519Z,3176
2017-10-11T14:13:04.911Z,3228
2017-10-11T14:14:07.672Z,3292
2017-10-11T14:15:10.041Z,2476
2017-10-11T14:16:12.417Z,2324
2017-10-11T14:17:14.817Z,2436
2017-10-11T14:18:17.200Z,2628
2017-10-11T14:19:19.585Z,2572
2017-10-11T14:20:21.963Z,2708
2017-10-11T14:21:24.360Z,2920
2017-10-11T14:22:26.720Z,3648
2017-10-11T14:23:29.469Z,4064
2017-10-11T14:24:31.838Z,4652